Time;durP1;ratioP1;P1;durP2;ratioP2;P2;SDS_P1;SDS_P2;PMS_P1;PMS_P2;Temp;Humidity;BMP_temperature;BMP_pressure;BME280_temperature;BME280_humidity;BME280_pressure;Samples;Min_cycle;Max_cycle;Signal;HPM_P1;HPM_P2
2023/01/03 00:00:20;;;;;;;4.17;2.07;;;10.10;99.90;;;;;;4984247;28;20030;-76
2023/01/03 00:02:45;;;;;;;5.13;2.10;;;10.10;99.90;;;;;;4978461;28;20118;-76
2023/01/03 00:05:11;;;;;;;4.97;1.97;;;10.10;99.90;;;;;;4990082;28;20423;-76
2023/01/03 00:07:36;;;;;;;5.20;2.00;;;10.00;99.90;;;;;;4978184;28;20077;-76
2023/01/03 00:10:05;;;;;;;6.00;2.10;;;9.90;99.90;;;;;;4979600;28;20030;-76
2023/01/03 00:12:31;;;;;;;5.63;2.13;;;9.90;99.90;;;;;;4982726;28;20070;-76
2023/01/03 00:14:58;;;;;;;8.00;2.17;;;9.80;99.90;;;;;;4980357;28;20085;-76
2023/01/03 00:17:24;;;;;;;3.63;2.10;;;9.80;99.90;;;;;;4978137;28;20102;-76
2023/01/03 00:19:50;;;;;;;7.37;2.27;;;9.70;99.90;;;;;;4990963;28;20066;-76
2023/01/03 00:22:16;;;;;;;5.73;2.10;;;9.70;99.90;;;;;;4991472;28;20085;-77
2023/01/03 00:24:43;;;;;;;5.60;2.30;;;9.60;99.90;;;;;;4983680;28;20535;-77
2023/01/03 00:27:09;;;;;;;4.47;2.47;;;9.50;99.90;;;;;;4976734;28;20073;-76
2023/01/03 00:29:35;;;;;;;3.07;2.10;;;9.40;99.90;;;;;;4977146;28;20054;-76
2023/01/03 00:32:00;;;;;;;3.90;2.20;;;9.30;99.90;;;;;;4978914;28;20026;-77
2023/01/03 00:34:26;;;;;;;6.23;2.37;;;9.30;99.90;;;;;;4983000;28;20376;-77
2023/01/03 00:36:52;;;;;;;2.40;1.97;;;9.20;99.90;;;;;;4980822;28;20038;-77
2023/01/03 00:39:18;;;;;;;3.87;1.80;;;9.20;99.90;;;;;;4976708;28;20035;-77
2023/01/03 00:41:43;;;;;;;3.30;1.70;;;9.10;99.90;;;;;;4976651;28;20078;-77
2023/01/03 00:44:09;;;;;;;6.17;1.80;;;9.10;99.90;;;;;;4980055;28;20035;-77
2023/01/03 00:46:35;;;;;;;4.63;2.03;;;9.00;99.90;;;;;;4975402;28;20039;-77
2023/01/03 00:49:01;;;;;;;3.17;1.83;;;9.10;99.90;;;;;;4983391;28;20027;-77
2023/01/03 00:51:29;;;;;;;4.03;1.80;;;9.00;99.90;;;;;;4993927;28;20052;-77
2023/01/03 00:53:56;;;;;;;6.33;2.20;;;9.00;99.90;;;;;;4986959;28;20531;-77
2023/01/03 00:56:26;;;;;;;5.10;2.00;;;9.00;99.90;;;;;;4988182;28;20033;-77
2023/01/03 00:58:53;;;;;;;4.67;2.17;;;8.90;99.90;;;;;;4978028;28;20111;-77
2023/01/03 01:01:24;;;;;;;5.00;2.30;;;8.80;99.90;;;;;;4979149;28;20502;-77
2023/01/03 01:03:53;;;;;;;3.10;1.80;;;8.80;99.90;;;;;;4979463;28;20054;-77
2023/01/03 01:06:24;;;;;;;4.17;1.87;;;8.80;99.90;;;;;;4990413;28;20034;-77
2023/01/03 01:08:52;;;;;;;4.13;1.90;;;8.80;99.90;;;;;;4976836;28;20086;-77
2023/01/03 01:11:18;;;;;;;3.33;1.63;;;8.70;99.90;;;;;;4976661;28;20027;-77
2023/01/03 01:13:45;;;;;;;2.83;1.30;;;8.70;99.90;;;;;;4981477;28;20034;-77
2023/01/03 01:16:16;;;;;;;2.97;1.17;;;8.60;99.90;;;;;;4990912;28;20034;-77
2023/01/03 01:18:45;;;;;;;1.33;1.00;;;8.50;99.90;;;;;;4986091;28;20490;-77
2023/01/03 01:21:13;;;;;;;1.17;0.90;;;8.40;99.90;;;;;;4985784;28;20106;-77
2023/01/03 01:23:40;;;;;;;1.60;1.00;;;8.30;99.90;;;;;;4986291;28;20038;-77
2023/01/03 01:26:09;;;;;;;2.23;1.13;;;8.30;99.90;;;;;;4980282;28;20423;-77
2023/01/03 01:28:34;;;;;;;3.13;1.00;;;8.20;99.90;;;;;;4976055;28;20026;-77
2023/01/03 01:31:01;;;;;;;3.00;1.00;;;8.10;99.90;;;;;;4982334;28;20365;-77
2023/01/03 01:33:28;;;;;;;2.13;0.90;;;8.10;99.90;;;;;;4975503;28;20041;-77
2023/01/03 01:35:55;;;;;;;1.37;0.70;;;8.00;99.90;;;;;;4993635;28;20113;-77
2023/01/03 01:38:21;;;;;;;1.10;0.80;;;8.00;99.90;;;;;;4977275;28;20479;-77
2023/01/03 01:40:47;;;;;;;1.33;1.00;;;8.00;99.90;;;;;;4978265;28;20030;-77
2023/01/03 01:46:25;;;;;;;1.33;0.80;;;8.00;99.90;;;;;;4983919;28;20085;-77
2023/01/03 01:48:57;;;;;;;1.97;0.87;;;7.90;99.90;;;;;;4965792;28;20054;-77
2023/01/03 01:51:26;;;;;;;0.97;0.83;;;7.90;99.90;;;;;;4982479;28;20023;-77
2023/01/03 01:53:53;;;;;;;1.20;0.87;;;7.90;99.90;;;;;;4983133;28;20037;-77
2023/01/03 01:56:26;;;;;;;1.27;0.80;;;7.90;99.90;;;;;;4984359;28;20038;-77
2023/01/03 01:58:53;;;;;;;1.03;0.80;;;7.90;99.90;;;;;;4983637;28;20034;-77
2023/01/03 02:01:21;;;;;;;1.43;0.73;;;7.90;99.90;;;;;;4990506;28;20344;-77
2023/01/03 02:03:55;;;;;;;1.57;0.70;;;7.90;99.90;;;;;;4985689;28;20030;-77
2023/01/03 02:06:22;;;;;;;0.70;0.70;;;7.90;99.90;;;;;;4981234;28;20076;-77
2023/01/03 02:08:47;;;;;;;0.97;0.70;;;7.90;99.90;;;;;;4974983;28;20035;-77
2023/01/03 02:11:48;;;;;;;1.10;0.70;;;7.90;99.90;;;;;;4980543;28;20051;-77
2023/01/03 02:14:41;;;;;;;1.63;0.80;;;7.90;99.90;;;;;;4990310;28;20042;-77
2023/01/03 02:17:32;;;;;;;0.70;0.70;;;7.90;99.90;;;;;;4987248;28;20391;-77
2023/01/03 02:20:23;;;;;;;0.90;0.80;;;7.90;99.90;;;;;;4977761;28;20042;-77
2023/01/03 02:23:25;;;;;;;0.83;0.80;;;7.90;99.90;;;;;;4983672;28;20053;-77
2023/01/03 02:26:32;;;;;;;1.37;0.90;;;7.90;99.90;;;;;;4968201;28;20106;-77
2023/01/03 02:29:07;;;;;;;2.10;0.93;;;7.80;99.90;;;;;;4998471;28;20070;-77
2023/01/03 02:31:35;;;;;;;1.17;1.00;;;7.80;99.90;;;;;;4986232;28;20474;-77
2023/01/03 02:34:04;;;;;;;1.07;0.80;;;7.80;99.90;;;;;;4981999;28;20065;-77
2023/01/03 02:36:48;;;;;;;1.00;0.80;;;7.70;99.90;;;;;;4977095;28;20027;-77
2023/01/03 02:39:32;;;;;;;1.23;0.90;;;7.70;99.90;;;;;;4975235;28;20120;-77
2023/01/03 02:45:09;;;;;;;1.17;0.90;;;7.60;99.90;;;;;;4972284;28;20101;-79
2023/01/03 02:47:56;;;;;;;1.47;0.90;;;7.60;99.90;;;;;;4974780;28;20038;-79
2023/01/03 02:50:25;;;;;;;1.33;1.00;;;7.50;99.90;;;;;;4974752;28;20029;-79
2023/01/03 02:52:54;;;;;;;1.00;0.80;;;7.50;99.90;;;;;;4974949;28;20049;-79
2023/01/03 02:55:24;;;;;;;1.33;0.90;;;7.50;99.90;;;;;;4973122;28;20026;-79
2023/01/03 02:58:08;;;;;;;1.57;0.87;;;7.50;99.90;;;;;;4989778;28;20096;-79
2023/01/03 03:00:40;;;;;;;1.00;0.80;;;7.50;99.90;;;;;;4993786;28;20383;-79
2023/01/03 03:03:12;;;;;;;1.73;0.90;;;7.50;99.90;;;;;;4981874;28;20141;-79
2023/01/03 03:06:29;;;;;;;0.90;0.90;;;7.50;99.90;;;;;;4974309;28;20023;-79
2023/01/03 03:08:55;;;;;;;1.20;0.90;;;7.50;99.90;;;;;;4968533;28;20046;-79
2023/01/03 03:14:26;;;;;;;1.17;1.00;;;7.40;99.90;;;;;;4954921;29;20038;-79
2023/01/03 03:16:58;;;;;;;2.63;1.30;;;7.40;99.90;;;;;;4969653;28;20066;-79
2023/01/03 03:25:43;;;;;;;1.27;1.10;;;7.30;99.90;;;;;;4954931;29;20042;-79
2023/01/03 03:31:02;;;;;;;1.40;0.90;;;7.30;99.90;;;;;;4955369;29;20030;-79
2023/01/03 03:33:32;;;;;;;1.73;1.03;;;7.30;99.90;;;;;;4991324;28;20062;-79
2023/01/03 03:36:18;;;;;;;1.50;1.00;;;7.20;99.90;;;;;;4992123;28;20050;-79
2023/01/03 03:38:44;;;;;;;0.87;0.80;;;7.20;99.90;;;;;;4991039;28;20019;-79
2023/01/03 03:47:44;;;;;;;1.40;0.90;;;7.20;99.90;;;;;;4974466;28;20042;-79
2023/01/03 03:50:21;;;;;;;0.80;0.80;;;7.20;99.90;;;;;;4974119;28;20038;-79
2023/01/03 03:52:51;;;;;;;1.03;0.83;;;7.20;99.90;;;;;;4974054;28;20038;-79
2023/01/03 03:55:29;;;;;;;2.63;1.00;;;7.20;99.90;;;;;;4973780;28;20027;-79
2023/01/03 03:58:02;;;;;;;2.60;0.93;;;7.20;99.90;;;;;;4985018;28;20057;-80
2023/01/03 04:00:33;;;;;;;1.03;0.90;;;7.20;99.90;;;;;;4993329;28;20045;-79
2023/01/03 04:03:03;;;;;;;1.67;0.80;;;7.20;99.90;;;;;;4989331;28;20109;-79
2023/01/03 04:05:33;;;;;;;1.00;1.00;;;7.10;99.90;;;;;;4993116;28;20038;-79
2023/01/03 04:07:58;;;;;;;2.50;1.10;;;7.20;99.90;;;;;;4993409;28;20023;-78
2023/01/03 04:10:24;;;;;;;4.60;1.10;;;7.10;99.90;;;;;;4993454;28;20057;-79
2023/01/03 04:12:51;;;;;;;2.67;1.10;;;7.10;99.90;;;;;;4993409;28;20062;-79
2023/01/03 04:15:17;;;;;;;2.80;1.10;;;7.10;99.90;;;;;;4991318;28;20038;-79
2023/01/03 04:17:43;;;;;;;1.07;0.90;;;7.10;99.90;;;;;;4976429;28;20053;-79
2023/01/03 04:20:09;;;;;;;2.00;1.10;;;7.10;99.90;;;;;;4976011;28;20118;-79
2023/01/03 04:22:35;;;;;;;1.27;0.90;;;7.00;99.90;;;;;;4977147;28;20066;-79
2023/01/03 04:25:00;;;;;;;1.80;0.90;;;7.00;99.90;;;;;;4977414;28;20432;-79
2023/01/03 04:27:27;;;;;;;1.13;1.00;;;7.00;99.90;;;;;;4977414;28;20419;-79
2023/01/03 04:29:52;;;;;;;2.80;1.10;;;7.00;99.90;;;;;;4977252;28;20027;-79
2023/01/03 04:32:18;;;;;;;2.33;1.00;;;7.00;99.90;;;;;;4976017;28;20444;-78
2023/01/03 04:34:43;;;;;;;2.10;1.20;;;7.00;99.90;;;;;;4977146;28;20114;-79
2023/01/03 04:37:09;;;;;;;1.47;1.20;;;7.00;99.90;;;;;;4976833;28;20054;-79
2023/01/03 04:39:34;;;;;;;1.70;1.40;;;6.90;99.90;;;;;;4976737;28;20122;-79
2023/01/03 04:42:00;;;;;;;1.27;1.10;;;6.90;99.90;;;;;;4985726;28;20066;-79
2023/01/03 04:44:26;;;;;;;4.03;1.30;;;6.90;99.90;;;;;;4996148;28;20137;-79
2023/01/03 04:46:52;;;;;;;2.33;1.30;;;6.90;99.90;;;;;;4996405;28;20042;-78
2023/01/03 04:49:18;;;;;;;3.03;1.27;;;7.00;99.90;;;;;;4996655;28;20085;-79
2023/01/03 04:51:43;;;;;;;1.87;1.10;;;7.00;99.90;;;;;;4990414;28;20031;-85
2023/01/03 04:54:09;;;;;;;1.97;1.10;;;7.00;99.90;;;;;;4972439;28;20026;-84
2023/01/03 04:56:36;;;;;;;1.80;1.40;;;7.00;99.90;;;;;;4971976;28;20041;-84
2023/01/03 04:59:03;;;;;;;2.33;1.30;;;7.00;99.90;;;;;;4971230;28;20464;-85
2023/01/03 05:01:28;;;;;;;3.73;1.20;;;7.00;99.90;;;;;;4971926;28;20038;-84
2023/01/03 05:03:59;;;;;;;2.03;1.30;;;7.00;99.90;;;;;;4970120;28;20034;-84
2023/01/03 05:06:25;;;;;;;2.73;1.13;;;7.00;99.90;;;;;;4970897;28;20030;-85
2023/01/03 05:08:51;;;;;;;1.80;1.13;;;7.00;99.90;;;;;;4972045;28;20030;-85
2023/01/03 05:11:16;;;;;;;2.23;1.30;;;7.00;99.90;;;;;;4971929;28;20034;-84
2023/01/03 05:13:42;;;;;;;3.13;1.27;;;7.00;99.90;;;;;;4971465;28;20077;-84
2023/01/03 05:16:10;;;;;;;1.57;1.30;;;7.00;99.90;;;;;;4974455;28;20099;-78
2023/01/03 05:18:36;;;;;;;1.80;1.43;;;7.00;99.90;;;;;;4983316;28;20035;-86
2023/01/03 05:26:46;;;;;;;2.20;1.50;;;7.00;99.90;;;;;;4974708;28;20038;-85
2023/01/03 05:29:14;;;;;;;2.97;1.83;;;7.00;99.90;;;;;;4978576;28;20027;-86
2023/01/03 05:31:39;;;;;;;3.20;1.60;;;7.00;99.90;;;;;;4976542;28;20030;-86
2023/01/03 05:34:05;;;;;;;5.07;1.50;;;7.10;99.90;;;;;;4974766;28;20031;-85
2023/01/03 05:36:30;;;;;;;2.20;1.50;;;7.00;99.90;;;;;;4975594;28;20074;-86
2023/01/03 05:38:56;;;;;;;4.13;1.60;;;7.00;99.90;;;;;;4975414;28;20029;-86
2023/01/03 05:44:06;;;;;;;1.57;1.40;;;7.00;99.90;;;;;;4972490;28;20113;-78
2023/01/03 05:46:31;;;;;;;2.13;1.53;;;7.00;99.90;;;;;;4975600;28;20114;-78
2023/01/03 05:48:57;;;;;;;2.13;1.60;;;7.00;99.90;;;;;;4981792;28;20097;-77
2023/01/03 05:51:23;;;;;;;2.33;1.50;;;7.00;99.90;;;;;;4985015;28;20534;-77
2023/01/03 05:53:48;;;;;;;2.77;1.60;;;7.00;99.90;;;;;;4978356;28;20372;-77
2023/01/03 05:56:15;;;;;;;4.73;2.10;;;7.00;99.90;;;;;;4977106;28;20447;-78
2023/01/03 05:58:42;;;;;;;4.40;1.70;;;7.00;99.90;;;;;;4981411;28;20018;-79
2023/01/03 06:01:09;;;;;;;3.03;1.60;;;7.00;99.90;;;;;;4985569;28;20046;-79
2023/01/03 06:03:34;;;;;;;2.30;1.50;;;7.00;99.90;;;;;;4976488;28;20030;-78
2023/01/03 06:06:05;;;;;;;1.80;1.23;;;7.00;99.90;;;;;;4976486;28;20030;-78
2023/01/03 06:08:31;;;;;;;3.53;1.30;;;7.10;99.90;;;;;;4980714;28;20019;-74
2023/01/03 06:10:56;;;;;;;3.50;1.60;;;7.00;99.90;;;;;;4984152;28;20022;-77
2023/01/03 06:13:25;;;;;;;3.87;2.00;;;7.00;99.90;;;;;;4979758;28;20034;-77
2023/01/03 06:17:53;;;;;;;3.13;1.67;;;7.10;99.90;;;;;;4978155;28;20027;-77
2023/01/03 06:18:36;;;;;;;4.00;1.80;;;7.10;99.90;;;;;;4977788;28;20104;-77
2023/01/03 06:21:03;;;;;;;3.40;2.10;;;7.00;99.90;;;;;;4976555;28;20543;-77
2023/01/03 06:23:28;;;;;;;2.90;1.50;;;7.00;99.90;;;;;;4978219;28;20093;-77
2023/01/03 06:25:54;;;;;;;2.77;1.50;;;7.00;99.90;;;;;;4979136;28;20591;-78
2023/01/03 06:28:20;;;;;;;2.33;1.63;;;7.00;99.90;;;;;;4977261;28;20072;-77
2023/01/03 06:30:46;;;;;;;4.23;2.70;;;7.00;99.90;;;;;;4978729;28;20523;-77
2023/01/03 06:33:12;;;;;;;16.60;8.97;;;7.00;99.90;;;;;;4977238;28;20690;-77
2023/01/03 06:35:38;;;;;;;5.23;2.90;;;7.00;99.90;;;;;;4977263;28;20041;-77
2023/01/03 06:38:04;;;;;;;3.30;2.00;;;6.90;99.90;;;;;;4973315;28;20037;-77
2023/01/03 06:40:30;;;;;;;3.33;2.03;;;6.90;99.90;;;;;;4979062;28;20019;-77
2023/01/03 06:42:55;;;;;;;3.80;2.27;;;6.90;99.90;;;;;;4977527;28;20312;-77
2023/01/03 06:53:39;;;;;;;5.80;4.57;;;6.90;99.90;;;;;;4970273;28;20057;-77
2023/01/03 06:56:05;;;;;;;5.60;2.60;;;6.80;99.90;;;;;;4973794;28;20022;-77
2023/01/03 06:58:31;;;;;;;5.30;2.90;;;6.90;99.90;;;;;;4976969;28;20037;-77
2023/01/03 07:00:58;;;;;;;3.40;2.60;;;6.80;99.90;;;;;;4971284;28;20379;-84
2023/01/03 07:03:24;;;;;;;3.23;2.40;;;6.80;99.90;;;;;;4966436;28;20027;-84
2023/01/03 07:05:50;;;;;;;4.20;2.97;;;6.80;99.90;;;;;;4964191;28;20467;-85
2023/01/03 07:08:15;;;;;;;3.40;2.40;;;6.80;99.90;;;;;;4968397;28;20387;-85
2023/01/03 07:10:41;;;;;;;3.77;2.70;;;6.80;99.90;;;;;;4969117;28;20015;-85
2023/01/03 07:15:51;;;;;;;2.70;1.93;;;6.80;99.90;;;;;;4968264;28;20053;-83
2023/01/03 07:18:16;;;;;;;3.67;2.47;;;6.80;99.90;;;;;;4968651;28;20055;-83
2023/01/03 07:20:43;;;;;;;3.40;2.50;;;6.80;99.90;;;;;;4964274;28;20038;-83
2023/01/03 07:23:10;;;;;;;2.93;2.30;;;6.80;99.90;;;;;;4966212;28;20039;-83
2023/01/03 07:25:40;;;;;;;4.73;2.30;;;6.80;99.90;;;;;;4967909;28;20062;-82
2023/01/03 07:28:13;;;;;;;6.53;2.30;;;6.80;99.90;;;;;;4965804;28;20019;-83
2023/01/03 07:30:41;;;;;;;3.40;2.23;;;6.80;99.90;;;;;;4964812;28;20034;-82
2023/01/03 07:33:09;;;;;;;4.73;2.87;;;6.80;99.90;;;;;;4968332;28;20488;-82
2023/01/03 07:35:36;;;;;;;7.07;3.27;;;6.80;99.90;;;;;;4967187;28;20037;-83
2023/01/03 07:38:02;;;;;;;4.33;2.57;;;6.80;99.90;;;;;;4984090;28;20059;-82
2023/01/03 07:40:28;;;;;;;5.23;3.13;;;6.80;99.90;;;;;;4966589;28;20373;-83
2023/01/03 07:45:43;;;;;;;4.23;3.03;;;6.80;99.90;;;;;;4967826;28;20054;-83
2023/01/03 07:48:09;;;;;;;3.93;2.73;;;6.90;99.90;;;;;;4968086;28;20031;-83
2023/01/03 07:50:36;;;;;;;4.17;3.20;;;6.90;99.90;;;;;;4967694;28;20046;-83
2023/01/03 07:53:02;;;;;;;4.73;3.77;;;6.90;99.90;;;;;;4971655;28;20037;-83
2023/01/03 07:55:28;;;;;;;5.90;3.30;;;6.90;99.90;;;;;;4972232;28;20095;-83
2023/01/03 07:57:57;;;;;;;5.50;3.50;;;6.90;99.90;;;;;;4972586;28;20027;-83
2023/01/03 08:00:22;;;;;;;5.63;3.53;;;6.90;99.90;;;;;;4971628;28;20027;-83
2023/01/03 08:02:52;;;;;;;5.87;3.10;;;6.90;99.90;;;;;;4972614;28;20030;-83
2023/01/03 08:05:17;;;;;;;4.77;3.17;;;6.90;99.90;;;;;;4969565;28;20432;-83
2023/01/03 08:07:43;;;;;;;6.67;3.27;;;7.00;99.90;;;;;;4971724;28;20027;-83
2023/01/03 08:15:37;;;;;;;4.97;3.80;;;7.00;99.90;;;;;;4972005;28;20041;-83
2023/01/03 08:18:05;;;;;;;4.60;3.67;;;7.00;99.90;;;;;;4971859;28;20027;-83
2023/01/03 08:20:30;;;;;;;7.67;3.87;;;7.00;99.90;;;;;;4970929;28;20050;-83
2023/01/03 08:22:59;;;;;;;5.30;3.53;;;6.90;99.90;;;;;;4970798;28;20423;-83
2023/01/03 08:25:24;;;;;;;4.80;3.63;;;6.90;99.90;;;;;;4969739;28;20035;-82
2023/01/03 08:27:50;;;;;;;4.53;3.20;;;6.90;99.90;;;;;;4966362;28;20444;-82
2023/01/03 08:30:15;;;;;;;5.83;3.60;;;6.90;99.90;;;;;;4964842;28;20746;-83
2023/01/03 08:32:41;;;;;;;8.13;4.77;;;6.90;99.90;;;;;;4978452;28;20029;-78
2023/01/03 08:35:08;;;;;;;6.43;4.00;;;6.90;99.90;;;;;;4980511;28;20066;-78
2023/01/03 08:37:33;;;;;;;10.90;7.20;;;6.90;99.90;;;;;;4972583;28;20035;-82
2023/01/03 08:40:03;;;;;;;4.37;3.30;;;6.90;99.90;;;;;;4969517;28;20038;-83
2023/01/03 08:42:31;;;;;;;5.60;4.03;;;6.90;99.90;;;;;;4969362;28;20030;-84
2023/01/03 08:45:04;;;;;;;7.00;4.37;;;6.90;99.90;;;;;;4970650;28;20062;-84
2023/01/03 08:47:30;;;;;;;6.87;4.37;;;6.90;99.90;;;;;;4969103;28;20055;-77
2023/01/03 08:49:56;;;;;;;10.20;6.10;;;6.90;99.90;;;;;;4979460;28;20107;-77
2023/01/03 08:52:22;;;;;;;5.50;4.23;;;6.90;99.90;;;;;;4980215;28;20018;-77
2023/01/03 08:54:48;;;;;;;9.83;6.90;;;6.90;99.90;;;;;;4980279;28;20030;-77
2023/01/03 08:57:13;;;;;;;342.33;154.30;;;7.00;99.90;;;;;;4982135;28;20061;-77
2023/01/03 08:59:39;;;;;;;54.97;25.23;;;7.00;99.90;;;;;;4975400;28;20027;-78
2023/01/03 09:02:05;;;;;;;28.30;12.97;;;7.00;99.90;;;;;;4985856;28;20442;-78
2023/01/03 09:04:30;;;;;;;14.93;8.90;;;7.00;99.90;;;;;;4981970;28;20052;-79
2023/01/03 09:06:56;;;;;;;10.23;6.30;;;7.00;99.90;;;;;;4978128;28;21022;-78
2023/01/03 09:09:22;;;;;;;9.77;5.67;;;7.00;99.90;;;;;;4979927;28;20031;-79
2023/01/03 09:11:47;;;;;;;9.80;5.37;;;7.00;99.90;;;;;;4978681;28;20038;-78
2023/01/03 09:14:13;;;;;;;8.97;4.80;;;7.00;99.90;;;;;;4980515;28;20063;-78
2023/01/03 09:16:39;;;;;;;7.60;4.50;;;7.00;99.90;;;;;;4978048;28;20503;-78
2023/01/03 09:19:04;;;;;;;6.60;4.33;;;7.00;99.90;;;;;;4978274;28;20066;-78
2023/01/03 09:21:30;;;;;;;6.70;4.10;;;7.10;99.90;;;;;;4982342;28;20480;-78
2023/01/03 09:23:57;;;;;;;6.97;4.20;;;7.10;99.90;;;;;;4982792;28;20023;-78
2023/01/03 09:26:23;;;;;;;6.30;4.03;;;7.10;99.90;;;;;;4980764;28;20029;-78
2023/01/03 09:28:49;;;;;;;7.50;3.93;;;7.10;99.90;;;;;;4965418;28;20590;-83
2023/01/03 09:31:14;;;;;;;6.87;4.90;;;7.10;99.90;;;;;;4973797;28;20027;-77
2023/01/03 09:33:40;;;;;;;7.00;5.00;;;7.20;99.90;;;;;;4975653;28;20104;-77
2023/01/03 09:36:06;;;;;;;11.60;6.77;;;7.20;99.90;;;;;;4979053;28;20074;-77
2023/01/03 09:38:31;;;;;;;9.53;6.20;;;7.20;99.90;;;;;;4979175;28;20122;-77
2023/01/03 09:41:06;;;;;;;7.57;4.90;;;7.20;99.90;;;;;;4977522;28;20105;-77
2023/01/03 09:43:41;;;;;;;6.20;4.25;;;7.20;99.90;;;;;;4971111;28;20400;-82
2023/01/03 09:46:25;;;;;;;;;;;7.20;99.90;;;;;;4965594;28;20043;-82
2023/01/03 09:48:54;;;;;;;6.43;4.90;;;7.30;99.90;;;;;;4967472;28;19964;-78
2023/01/03 10:03:45;;;;;;;6.57;4.80;;;7.30;99.90;;;;;;4968994;28;20092;-79
2023/01/03 10:06:40;;;;;;;6.10;4.40;;;7.30;99.90;;;;;;4979121;28;20033;-80
2023/01/03 10:09:30;;;;;;;6.53;4.50;;;7.30;99.90;;;;;;4981058;28;20014;-79
2023/01/03 10:12:31;;;;;;;5.97;4.30;;;7.30;99.90;;;;;;4980325;28;20052;-79
2023/01/03 10:14:56;;;;;;;7.00;4.03;;;7.30;99.90;;;;;;4975903;28;20023;-77
2023/01/03 10:17:27;;;;;;;8.87;5.07;;;7.40;99.90;;;;;;4979918;28;20396;-77
2023/01/03 10:20:14;;;;;;;6.87;4.30;;;7.40;99.90;;;;;;4978145;28;20019;-77
2023/01/03 10:22:40;;;;;;;7.40;4.30;;;7.40;99.90;;;;;;4994384;28;20037;-78
2023/01/03 10:25:06;;;;;;;6.40;4.37;;;7.40;99.90;;;;;;4975950;28;20022;-78
2023/01/03 10:27:41;;;;;;;5.97;4.30;;;7.40;99.90;;;;;;4981157;28;20647;-79
2023/01/03 10:30:14;;;;;;;6.30;4.30;;;7.40;99.90;;;;;;4984020;28;20014;-78
2023/01/03 10:33:27;;;;;;;10.73;4.37;;;7.50;99.90;;;;;;4974874;28;20033;-78
2023/01/03 10:35:53;;;;;;;6.33;3.67;;;7.50;99.90;;;;;;4976668;28;20022;-78
2023/01/03 10:38:21;;;;;;;6.10;4.07;;;7.50;99.90;;;;;;4974345;28;20026;-78
2023/01/03 10:40:57;;;;;;;6.57;4.17;;;7.60;99.90;;;;;;4976107;28;20018;-78
2023/01/03 10:43:32;;;;;;;7.23;4.30;;;7.60;99.90;;;;;;4972776;28;20030;-77
2023/01/03 10:46:12;;;;;;;6.75;4.00;;;7.60;99.90;;;;;;4976560;28;20049;-77
2023/01/03 10:48:44;;;;;;;5.93;4.30;;;7.60;99.90;;;;;;4972604;28;20034;-83
2023/01/03 10:51:31;;;;;;;6.87;4.30;;;7.60;99.90;;;;;;4965084;28;20031;-83
2023/01/03 10:53:58;;;;;;;6.20;3.80;;;7.70;99.90;;;;;;4965790;28;20038;-83
2023/01/03 10:56:26;;;;;;;5.33;3.70;;;7.70;99.90;;;;;;4965262;28;20074;-83
2023/01/03 10:59:20;;;;;;;6.20;4.30;;;7.70;99.90;;;;;;4965281;28;20479;-83
2023/01/03 11:01:57;;;;;;;7.40;4.43;;;7.80;99.90;;;;;;4964500;28;20043;-84
2023/01/03 11:04:23;;;;;;;6.53;4.33;;;7.80;99.90;;;;;;4964664;28;20039;-84
2023/01/03 11:07:11;;;;;;;9.33;4.83;;;7.80;99.90;;;;;;4964152;28;20030;-84
2023/01/03 11:09:54;;;;;;;7.17;4.50;;;7.80;99.90;;;;;;4966717;28;20599;-84
2023/01/03 11:12:28;;;;;;;8.93;4.07;;;7.80;99.90;;;;;;4968266;28;20039;-84
2023/01/03 11:14:56;;;;;;;5.70;4.50;;;7.80;99.90;;;;;;4966463;28;20039;-83
2023/01/03 11:17:24;;;;;;;6.17;4.50;;;7.90;99.90;;;;;;4971143;28;20380;-77
2023/01/03 11:19:51;;;;;;;6.53;4.27;;;7.80;99.90;;;;;;4975356;28;20027;-79
2023/01/03 11:22:25;;;;;;;6.03;4.03;;;7.90;99.90;;;;;;4974591;28;20423;-83
2023/01/03 11:25:10;;;;;;;5.28;3.72;;;7.90;99.90;;;;;;4963650;28;20090;-83
2023/01/03 11:27:54;;;;;;;6.03;3.67;;;7.90;99.90;;;;;;4972717;28;20043;-84
2023/01/03 11:30:44;;;;;;;6.67;3.90;;;7.90;99.90;;;;;;4971383;28;20042;-83
2023/01/03 11:33:33;;;;;;;7.13;3.70;;;7.90;99.90;;;;;;4972504;28;20507;-84
2023/01/03 11:36:13;;;;;;;7.50;4.10;;;8.00;99.90;;;;;;4972262;28;20101;-83
2023/01/03 11:39:03;;;;;;;9.30;4.00;;;8.00;99.90;;;;;;4970643;28;20112;-84
2023/01/03 11:41:53;;;;;;;6.17;3.27;;;8.00;99.90;;;;;;4978686;28;20114;-79
2023/01/03 11:44:58;;;;;;;5.43;3.60;;;8.00;99.90;;;;;;4984870;28;20023;-79
2023/01/03 11:47:31;;;;;;;8.90;4.67;;;8.00;99.90;;;;;;4985623;28;20492;-85
2023/01/03 11:50:23;;;;;;;7.40;3.80;;;8.00;99.90;;;;;;4978556;28;20023;-78
2023/01/03 11:53:15;;;;;;;6.70;3.60;;;8.10;99.90;;;;;;4982730;28;20046;-78
2023/01/03 11:56:06;;;;;;;5.40;3.27;;;8.00;99.90;;;;;;4977808;28;20034;-78
2023/01/03 11:58:46;;;;;;;5.33;3.93;;;8.00;99.90;;;;;;4979183;28;20039;-78
2023/01/03 12:01:43;;;;;;;5.23;3.40;;;8.00;99.90;;;;;;4983048;28;20030;-83
2023/01/03 12:04:29;;;;;;;3.77;3.13;;;8.10;99.90;;;;;;4970440;28;20039;-84
2023/01/03 12:07:10;;;;;;;4.67;3.30;;;8.10;99.90;;;;;;4972414;28;20122;-83
2023/01/03 12:10:00;;;;;;;5.33;3.67;;;8.10;99.90;;;;;;4971395;28;20486;-83
2023/01/03 12:12:41;;;;;;;3.90;3.13;;;8.10;99.90;;;;;;4970466;28;20116;-83
2023/01/03 12:15:18;;;;;;;5.40;3.33;;;8.00;99.90;;;;;;4972804;28;20352;-83
2023/01/03 12:17:55;;;;;;;4.97;3.37;;;8.00;99.90;;;;;;4972385;28;20050;-83
2023/01/03 12:20:22;;;;;;;5.50;3.33;;;8.10;99.90;;;;;;4976911;28;20038;-80
2023/01/03 12:22:59;;;;;;;4.73;2.93;;;8.00;99.90;;;;;;4979492;28;20058;-84
2023/01/03 12:25:36;;;;;;;5.53;3.00;;;8.10;99.90;;;;;;4971707;28;20054;-85
2023/01/03 12:28:11;;;;;;;6.70;3.17;;;8.00;99.90;;;;;;4970101;28;20034;-85
2023/01/03 12:30:51;;;;;;;8.18;3.25;;;8.00;99.90;;;;;;4971785;28;20022;-85
2023/01/03 12:33:41;;;;;;;4.63;3.40;;;8.00;99.90;;;;;;4972768;28;20044;-85
2023/01/03 12:36:25;;;;;;;4.83;3.70;;;8.00;99.90;;;;;;4970163;28;20034;-85
2023/01/03 12:39:07;;;;;;;4.87;3.00;;;8.00;99.90;;;;;;4977639;28;20057;-80
2023/01/03 12:41:47;;;;;;;6.50;3.40;;;7.90;99.90;;;;;;4982577;28;20023;-80
2023/01/03 12:44:20;;;;;;;4.20;3.43;;;7.90;99.90;;;;;;4981030;28;20065;-79
2023/01/03 12:46:51;;;;;;;6.90;3.40;;;7.90;99.90;;;;;;4969397;28;20023;-83
2023/01/03 12:49:39;;;;;;;6.67;3.30;;;8.00;99.90;;;;;;4969052;28;20471;-83
2023/01/03 12:52:11;;;;;;;5.53;3.47;;;8.00;99.90;;;;;;4965580;28;20031;-85
2023/01/03 12:54:52;;;;;;;5.57;3.27;;;8.10;99.90;;;;;;4968667;28;20034;-84
2023/01/03 12:57:21;;;;;;;6.93;3.60;;;8.10;99.90;;;;;;4968595;28;20054;-85
2023/01/03 13:00:09;;;;;;;5.07;3.40;;;8.10;99.90;;;;;;4965456;28;20045;-84
2023/01/03 13:02:49;;;;;;;4.53;2.77;;;8.10;99.90;;;;;;4966714;28;20125;-85
2023/01/03 13:05:26;;;;;;;5.97;3.00;;;8.10;99.90;;;;;;4967346;28;20031;-85
2023/01/03 13:08:01;;;;;;;4.03;3.20;;;8.10;99.90;;;;;;4981535;28;20383;-83
2023/01/03 13:10:32;;;;;;;5.85;3.30;;;8.10;99.90;;;;;;4967757;28;20436;-86
2023/01/03 13:13:00;;;;;;;5.57;2.80;;;8.10;99.90;;;;;;4968875;28;20027;-83
2023/01/03 13:15:33;;;;;;;4.23;2.47;;;8.10;99.90;;;;;;4967109;28;20031;-84
2023/01/03 13:18:22;;;;;;;5.33;2.40;;;8.00;99.90;;;;;;4972670;28;20031;-77
2023/01/03 13:20:54;;;;;;;3.83;2.40;;;8.00;99.90;;;;;;4980627;28;20035;-78
2023/01/03 13:23:31;;;;;;;5.20;2.43;;;8.00;99.90;;;;;;4984625;28;20027;-80
2023/01/03 13:26:16;;;;;;;6.73;2.23;;;8.00;99.90;;;;;;4982603;28;20026;-79
2023/01/03 13:28:41;;;;;;;3.05;2.30;;;8.00;99.90;;;;;;4975401;28;20034;-79
2023/01/03 13:31:13;;;;;;;3.83;2.40;;;8.00;99.90;;;;;;4982020;28;20348;-79
2023/01/03 13:33:50;;;;;;;3.60;2.67;;;8.00;99.90;;;;;;4979055;28;20034;-78
2023/01/03 13:36:16;;;;;;;2.90;2.20;;;8.00;99.90;;;;;;4980098;28;20027;-78
2023/01/03 13:38:42;;;;;;;2.53;1.90;;;8.00;99.90;;;;;;4979039;28;20046;-77
2023/01/03 13:41:31;;;;;;;2.27;1.63;;;8.00;99.90;;;;;;4977329;28;20046;-78
2023/01/03 13:44:08;;;;;;;3.10;2.00;;;7.90;99.90;;;;;;4980558;28;20022;-78
2023/01/03 13:46:34;;;;;;;4.17;1.80;;;7.90;99.90;;;;;;4976755;28;20034;-77
2023/01/03 13:49:02;;;;;;;4.03;1.93;;;7.90;99.90;;;;;;4978609;28;20110;-78
2023/01/03 13:51:40;;;;;;;2.63;2.10;;;7.90;99.90;;;;;;4977909;28;20126;-77
2023/01/03 13:54:11;;;;;;;6.63;2.53;;;7.90;99.90;;;;;;4977488;28;20038;-78
2023/01/03 13:56:43;;;;;;;3.23;2.00;;;7.90;99.90;;;;;;4978947;28;20109;-77
2023/01/03 13:59:16;;;;;;;2.00;1.50;;;7.90;99.90;;;;;;4977239;28;20054;-77
2023/01/03 14:01:54;;;;;;;3.40;1.97;;;7.80;99.90;;;;;;4975899;28;20030;-78
2023/01/03 14:04:53;;;;;;;5.53;2.23;;;7.80;99.90;;;;;;4979900;28;20022;-77
2023/01/03 14:07:43;;;;;;;4.30;2.10;;;7.80;99.90;;;;;;4979401;28;20054;-77
2023/01/03 14:10:21;;;;;;;4.80;2.10;;;7.80;99.90;;;;;;4977457;28;20022;-79
2023/01/03 14:13:15;;;;;;;4.80;2.13;;;7.80;99.90;;;;;;4982583;28;20046;-79
2023/01/03 14:15:40;;;;;;;3.20;2.10;;;7.80;99.90;;;;;;4978605;28;20388;-79
2023/01/03 14:18:23;;;;;;;6.37;2.27;;;7.80;99.90;;;;;;4982611;28;20030;-79
2023/01/03 14:20:51;;;;;;;3.37;2.60;;;7.80;99.90;;;;;;4976226;28;20081;-85
2023/01/03 14:23:20;;;;;;;5.10;2.63;;;7.80;99.90;;;;;;4969168;28;20446;-85
2023/01/03 14:25:46;;;;;;;3.97;2.13;;;7.70;99.90;;;;;;4968161;28;20133;-85